sensor_id;sensor_type;location;lat;lon;timestamp;pressure;altitude;pressure_sealevel;temperature;humidity
66196;BME280;53000;45.182;5.736;2023-08-06T00:00:01;99007.84;;;23.33;38.36
66196;BME280;53000;45.182;5.736;2023-08-06T00:02:28;98997.56;;;23.28;38.53
66196;BME280;53000;45.182;5.736;2023-08-06T00:04:53;99001.13;;;23.23;38.81
66196;BME280;53000;45.182;5.736;2023-08-06T00:07:18;99001.31;;;23.17;39.09
66196;BME280;53000;45.182;5.736;2023-08-06T00:09:44;98996.59;;;23.12;39.04
66196;BME280;53000;45.182;5.736;2023-08-06T00:12:09;99003.47;;;23.10;38.94
66196;BME280;53000;45.182;5.736;2023-08-06T00:14:34;99003.63;;;23.03;38.82
66196;BME280;53000;45.182;5.736;2023-08-06T00:16:59;98996.47;;;23.02;39.42
66196;BME280;53000;45.182;5.736;2023-08-06T00:19:25;99001.38;;;23.00;38.99
66196;BME280;53000;45.182;5.736;2023-08-06T00:21:50;98994.69;;;22.96;39.09
66196;BME280;53000;45.182;5.736;2023-08-06T00:24:15;99001.31;;;22.95;39.25
66196;BME280;53000;45.182;5.736;2023-08-06T00:26:41;99000.75;;;22.93;38.83
66196;BME280;53000;45.182;5.736;2023-08-06T00:29:06;99005.72;;;22.96;38.84
66196;BME280;53000;45.182;5.736;2023-08-06T00:31:31;98984.19;;;22.93;38.46
66196;BME280;53000;45.182;5.736;2023-08-06T00:33:57;98996.88;;;22.94;38.26
66196;BME280;53000;45.182;5.736;2023-08-06T00:36:22;99002.91;;;22.91;38.35
66196;BME280;53000;45.182;5.736;2023-08-06T00:38:48;98995.91;;;22.83;38.50
66196;BME280;53000;45.182;5.736;2023-08-06T00:41:14;98998.66;;;22.83;38.42
66196;BME280;53000;45.182;5.736;2023-08-06T00:43:39;99000.84;;;22.81;38.40
66196;BME280;53000;45.182;5.736;2023-08-06T00:46:05;99003.03;;;22.79;38.62
66196;BME280;53000;45.182;5.736;2023-08-06T00:48:31;99006.31;;;22.76;38.70
66196;BME280;53000;45.182;5.736;2023-08-06T00:50:56;99009.56;;;22.73;38.79
66196;BME280;53000;45.182;5.736;2023-08-06T00:53:21;99002.16;;;22.73;39.21
66196;BME280;53000;45.182;5.736;2023-08-06T00:55:47;98998.53;;;22.73;39.54
66196;BME280;53000;45.182;5.736;2023-08-06T00:58:13;98994.94;;;22.72;38.97
66196;BME280;53000;45.182;5.736;2023-08-06T01:00:39;98995.97;;;22.66;39.52
66196;BME280;53000;45.182;5.736;2023-08-06T01:03:04;99002.59;;;22.65;39.45
66196;BME280;53000;45.182;5.736;2023-08-06T01:05:30;99004.53;;;22.64;39.32
66196;BME280;53000;45.182;5.736;2023-08-06T01:13:42;99008.75;;;22.72;38.95
66196;BME280;53000;45.182;5.736;2023-08-06T01:16:10;99010.16;;;22.75;39.06
66196;BME280;53000;45.182;5.736;2023-08-06T01:18:36;99005.16;;;22.72;39.37
66196;BME280;53000;45.182;5.736;2023-08-06T01:21:04;99008.16;;;22.70;39.35
66196;BME280;53000;45.182;5.736;2023-08-06T01:23:29;99003.66;;;22.64;40.41
66196;BME280;53000;45.182;5.736;2023-08-06T01:26:06;99024.31;;;22.61;40.23
66196;BME280;53000;45.182;5.736;2023-08-06T01:28:59;99014.41;;;22.60;40.39
66196;BME280;53000;45.182;5.736;2023-08-06T01:31:31;99017.66;;;22.57;41.04
66196;BME280;53000;45.182;5.736;2023-08-06T01:33:59;99031.69;;;22.56;41.43
66196;BME280;53000;45.182;5.736;2023-08-06T01:36:26;99023.94;;;22.53;41.06
66196;BME280;53000;45.182;5.736;2023-08-06T01:38:53;99023.69;;;22.54;40.62
66196;BME280;53000;45.182;5.736;2023-08-06T01:41:18;99021.41;;;22.51;41.53
66196;BME280;53000;45.182;5.736;2023-08-06T01:43:44;99018.25;;;22.42;41.16
66196;BME280;53000;45.182;5.736;2023-08-06T01:46:09;99019.09;;;22.43;41.88
66196;BME280;53000;45.182;5.736;2023-08-06T01:48:35;99021.00;;;22.42;41.98
66196;BME280;53000;45.182;5.736;2023-08-06T01:51:00;99022.34;;;22.40;42.10
66196;BME280;53000;45.182;5.736;2023-08-06T01:53:26;99019.25;;;22.36;41.77
66196;BME280;53000;45.182;5.736;2023-08-06T01:55:51;99011.50;;;22.33;42.11
66196;BME280;53000;45.182;5.736;2023-08-06T01:58:16;99008.50;;;22.35;41.98
66196;BME280;53000;45.182;5.736;2023-08-06T02:00:42;99012.09;;;22.35;42.28
66196;BME280;53000;45.182;5.736;2023-08-06T02:03:07;99014.09;;;22.40;41.69
66196;BME280;53000;45.182;5.736;2023-08-06T02:05:33;99012.91;;;22.36;41.81
66196;BME280;53000;45.182;5.736;2023-08-06T02:07:58;99024.28;;;22.39;42.05
66196;BME280;53000;45.182;5.736;2023-08-06T02:10:24;99017.94;;;22.39;41.46
66196;BME280;53000;45.182;5.736;2023-08-06T02:12:49;99018.78;;;22.39;42.05
66196;BME280;53000;45.182;5.736;2023-08-06T02:15:14;99017.94;;;22.39;42.08
66196;BME280;53000;45.182;5.736;2023-08-06T02:17:40;99016.25;;;22.38;41.87
66196;BME280;53000;45.182;5.736;2023-08-06T02:20:06;99017.09;;;22.38;41.49
66196;BME280;53000;45.182;5.736;2023-08-06T02:22:31;99015.69;;;22.36;41.58
66196;BME280;53000;45.182;5.736;2023-08-06T02:24:56;99016.50;;;22.36;41.29
66196;BME280;53000;45.182;5.736;2023-08-06T02:27:22;99023.38;;;22.34;41.38
66196;BME280;53000;45.182;5.736;2023-08-06T02:29:47;99018.56;;;22.24;41.66
66196;BME280;53000;45.182;5.736;2023-08-06T02:32:12;99019.75;;;22.16;41.46
66196;BME280;53000;45.182;5.736;2023-08-06T02:34:38;99019.19;;;22.14;41.38
66196;BME280;53000;45.182;5.736;2023-08-06T02:37:03;99026.63;;;22.14;41.54
66196;BME280;53000;45.182;5.736;2023-08-06T02:39:29;99020.28;;;22.13;41.68
66196;BME280;53000;45.182;5.736;2023-08-06T02:41:54;99032.97;;;22.14;41.61
66196;BME280;53000;45.182;5.736;2023-08-06T02:44:19;99027.44;;;22.14;41.70
66196;BME280;53000;45.182;5.736;2023-08-06T02:46:45;99021.59;;;22.11;41.86
66196;BME280;53000;45.182;5.736;2023-08-06T02:49:10;99014.66;;;22.08;41.59
66196;BME280;53000;45.182;5.736;2023-08-06T02:51:36;99016.84;;;22.06;41.47
66196;BME280;53000;45.182;5.736;2023-08-06T02:54:01;99026.78;;;22.07;41.02
66196;BME280;53000;45.182;5.736;2023-08-06T02:56:26;99024.28;;;22.05;41.07
66196;BME280;53000;45.182;5.736;2023-08-06T02:58:52;99033.13;;;22.08;40.74
66196;BME280;53000;45.182;5.736;2023-08-06T03:01:17;99020.47;;;22.07;40.59
66196;BME280;53000;45.182;5.736;2023-08-06T03:03:43;99026.44;;;22.03;40.62
66196;BME280;53000;45.182;5.736;2023-08-06T03:06:08;99021.44;;;22.00;40.29
66196;BME280;53000;45.182;5.736;2023-08-06T03:08:33;99020.88;;;21.98;40.15
66196;BME280;53000;45.182;5.736;2023-08-06T03:10:58;99013.66;;;21.97;40.05
66196;BME280;53000;45.182;5.736;2023-08-06T03:13:24;99028.63;;;22.01;39.70
66196;BME280;53000;45.182;5.736;2023-08-06T03:15:57;99027.03;;;22.05;40.00
66196;BME280;53000;45.182;5.736;2023-08-06T03:18:22;99019.34;;;22.08;39.94
66196;BME280;53000;45.182;5.736;2023-08-06T03:20:48;99026.78;;;22.07;39.71
66196;BME280;53000;45.182;5.736;2023-08-06T03:23:14;99021.00;;;22.09;39.93
66196;BME280;53000;45.182;5.736;2023-08-06T03:25:39;99034.31;;;22.12;39.71
66196;BME280;53000;45.182;5.736;2023-08-06T03:28:04;99038.72;;;22.13;39.43
66196;BME280;53000;45.182;5.736;2023-08-06T03:30:30;99033.22;;;22.13;39.23
66196;BME280;53000;45.182;5.736;2023-08-06T03:32:55;99028.28;;;22.15;39.94
66196;BME280;53000;45.182;5.736;2023-08-06T03:35:20;99028.03;;;22.16;39.42
66196;BME280;53000;45.182;5.736;2023-08-06T03:37:46;99022.28;;;22.18;39.68
66196;BME280;53000;45.182;5.736;2023-08-06T03:40:11;99025.34;;;22.21;39.54
66196;BME280;53000;45.182;5.736;2023-08-06T03:42:36;99032.59;;;22.22;39.67
66196;BME280;53000;45.182;5.736;2023-08-06T03:45:02;99023.44;;;22.22;39.62
66196;BME280;53000;45.182;5.736;2023-08-06T03:47:28;99028.09;;;22.21;39.57
66196;BME280;53000;45.182;5.736;2023-08-06T03:49:53;99017.53;;;22.13;39.52
66196;BME280;53000;45.182;5.736;2023-08-06T03:52:18;99021.09;;;22.14;39.93
66196;BME280;53000;45.182;5.736;2023-08-06T03:54:44;99027.44;;;22.14;39.99
66196;BME280;53000;45.182;5.736;2023-08-06T03:57:09;99024.69;;;22.14;40.21
66196;BME280;53000;45.182;5.736;2023-08-06T03:59:35;99030.97;;;22.10;40.24
66196;BME280;53000;45.182;5.736;2023-08-06T04:02:01;99029.72;;;22.00;40.80
66196;BME280;53000;45.182;5.736;2023-08-06T04:04:26;99040.66;;;21.95;40.99
66196;BME280;53000;45.182;5.736;2023-08-06T04:06:51;99034.13;;;21.84;40.95
66196;BME280;53000;45.182;5.736;2023-08-06T04:09:17;99038.38;;;21.75;41.66
66196;BME280;53000;45.182;5.736;2023-08-06T04:11:42;99048.72;;;21.68;41.62
66196;BME280;53000;45.182;5.736;2023-08-06T04:14:07;99040.59;;;21.61;41.40
66196;BME280;53000;45.182;5.736;2023-08-06T04:16:33;99046.59;;;21.58;42.18
66196;BME280;53000;45.182;5.736;2023-08-06T04:18:58;99038.41;;;21.47;42.45
66196;BME280;53000;45.182;5.736;2023-08-06T04:21:24;99040.59;;;21.44;42.30
66196;BME280;53000;45.182;5.736;2023-08-06T04:23:49;99040.44;;;21.39;42.66
66196;BME280;53000;45.182;5.736;2023-08-06T04:26:14;99027.56;;;21.28;42.68
66196;BME280;53000;45.182;5.736;2023-08-06T04:28:40;99039.03;;;21.25;42.83
66196;BME280;53000;45.182;5.736;2023-08-06T04:31:05;99030.25;;;21.11;43.38
66196;BME280;53000;45.182;5.736;2023-08-06T04:33:31;99043.78;;;21.13;42.99
66196;BME280;53000;45.182;5.736;2023-08-06T04:35:56;99050.50;;;21.05;42.79
66196;BME280;53000;45.182;5.736;2023-08-06T04:38:24;99062.31;;;21.06;42.44
66196;BME280;53000;45.182;5.736;2023-08-06T04:40:50;99074.78;;;21.08;42.91
66196;BME280;53000;45.182;5.736;2023-08-06T04:43:16;99070.59;;;21.06;43.30
66196;BME280;53000;45.182;5.736;2023-08-06T04:45:48;99067.22;;;21.03;43.32
66196;BME280;53000;45.182;5.736;2023-08-06T04:48:14;99062.47;;;20.99;43.06
66196;BME280;53000;45.182;5.736;2023-08-06T04:50:46;99064.38;;;20.98;43.45
66196;BME280;53000;45.182;5.736;2023-08-06T04:53:12;99062.00;;;20.90;43.37
66196;BME280;53000;45.182;5.736;2023-08-06T04:55:37;99071.59;;;20.88;42.90
66196;BME280;53000;45.182;5.736;2023-08-06T04:58:03;99073.97;;;20.84;43.56
66196;BME280;53000;45.182;5.736;2023-08-06T05:00:28;99079.00;;;20.87;43.38
66196;BME280;53000;45.182;5.736;2023-08-06T05:02:53;99073.75;;;20.86;42.91
66196;BME280;53000;45.182;5.736;2023-08-06T05:05:19;99084.25;;;20.89;43.35
66196;BME280;53000;45.182;5.736;2023-08-06T05:07:49;99074.69;;;20.91;42.90
66196;BME280;53000;45.182;5.736;2023-08-06T05:10:14;99069.56;;;20.83;43.43
66196;BME280;53000;45.182;5.736;2023-08-06T05:12:40;99068.59;;;20.89;43.55
66196;BME280;53000;45.182;5.736;2023-08-06T05:15:05;99079.00;;;20.87;42.93
66196;BME280;53000;45.182;5.736;2023-08-06T05:17:31;99070.16;;;20.85;43.09
66196;BME280;53000;45.182;5.736;2023-08-06T05:19:56;99070.16;;;20.85;43.17
66196;BME280;53000;45.182;5.736;2023-08-06T05:22:21;99066.81;;;20.83;42.93
66196;BME280;53000;45.182;5.736;2023-08-06T05:24:47;99066.22;;;20.81;43.12
66196;BME280;53000;45.182;5.736;2023-08-06T05:27:12;99079.97;;;20.81;43.16
66196;BME280;53000;45.182;5.736;2023-08-06T05:29:38;99084.66;;;20.80;43.03
66196;BME280;53000;45.182;5.736;2023-08-06T05:32:03;99073.50;;;20.75;42.87
66196;BME280;53000;45.182;5.736;2023-08-06T05:34:29;99080.81;;;20.81;43.30
66196;BME280;53000;45.182;5.736;2023-08-06T05:36:54;99080.81;;;20.81;42.76
66196;BME280;53000;45.182;5.736;2023-08-06T05:39:19;99070.41;;;20.83;43.13
66196;BME280;53000;45.182;5.736;2023-08-06T05:41:45;99086.31;;;20.93;42.77
66196;BME280;53000;45.182;5.736;2023-08-06T05:44:10;99081.00;;;21.03;42.15
66196;BME280;53000;45.182;5.736;2023-08-06T05:46:36;99086.84;;;21.07;41.69
66196;BME280;53000;45.182;5.736;2023-08-06T05:49:01;99111.50;;;21.14;41.46
66196;BME280;53000;45.182;5.736;2023-08-06T05:51:27;99111.03;;;21.17;41.50
66196;BME280;53000;45.182;5.736;2023-08-06T05:53:52;99110.53;;;21.20;41.47
66196;BME280;53000;45.182;5.736;2023-08-06T05:56:17;99131.34;;;21.28;41.40
66196;BME280;53000;45.182;5.736;2023-08-06T05:58:43;99137.09;;;21.26;41.40
66196;BME280;53000;45.182;5.736;2023-08-06T06:01:08;99121.75;;;21.18;41.88
66196;BME280;53000;45.182;5.736;2023-08-06T06:03:33;99127.28;;;21.18;41.69
66196;BME280;53000;45.182;5.736;2023-08-06T06:06:00;99138.19;;;21.13;41.70
66196;BME280;53000;45.182;5.736;2023-08-06T06:08:26;99145.34;;;21.14;41.72
66196;BME280;53000;45.182;5.736;2023-08-06T06:10:51;99159.09;;;21.14;41.85
66196;BME280;53000;45.182;5.736;2023-08-06T06:13:16;99166.31;;;21.15;41.76
66196;BME280;53000;45.182;5.736;2023-08-06T06:15:42;99163.19;;;21.23;41.71
66196;BME280;53000;45.182;5.736;2023-08-06T06:18:07;99169.03;;;21.27;41.76
66196;BME280;53000;45.182;5.736;2023-08-06T06:20:32;99169.38;;;21.31;41.71
66196;BME280;53000;45.182;5.736;2023-08-06T06:22:59;99174.28;;;21.29;41.63
66196;BME280;53000;45.182;5.736;2023-08-06T06:25:24;99180.63;;;21.29;41.69
66196;BME280;53000;45.182;5.736;2023-08-06T06:27:49;99198.25;;;21.28;41.71
66196;BME280;53000;45.182;5.736;2023-08-06T06:30:15;99183.16;;;21.31;41.84
66196;BME280;53000;45.182;5.736;2023-08-06T06:32:40;99197.00;;;21.36;41.66
66196;BME280;53000;45.182;5.736;2023-08-06T06:35:06;99191.03;;;21.39;41.48
66196;BME280;53000;45.182;5.736;2023-08-06T06:37:32;99199.31;;;21.39;41.65
66196;BME280;53000;45.182;5.736;2023-08-06T06:39:57;99194.38;;;21.41;41.91
66196;BME280;53000;45.182;5.736;2023-08-06T06:42:22;99186.75;;;21.43;41.74
66196;BME280;53000;45.182;5.736;2023-08-06T06:44:48;99196.31;;;21.40;41.44
66196;BME280;53000;45.182;5.736;2023-08-06T06:47:13;99195.72;;;21.38;42.10
66196;BME280;53000;45.182;5.736;2023-08-06T06:49:39;99193.69;;;21.34;42.34
66196;BME280;53000;45.182;5.736;2023-08-06T06:52:05;99202.91;;;21.28;44.11
66196;BME280;53000;45.182;5.736;2023-08-06T06:54:30;99215.25;;;21.13;44.35
66196;BME280;53000;45.182;5.736;2023-08-06T06:56:55;99226.25;;;21.13;45.35
66196;BME280;53000;45.182;5.736;2023-08-06T06:59:21;99236.31;;;21.19;45.36
66196;BME280;53000;45.182;5.736;2023-08-06T07:01:46;99250.31;;;21.18;45.64
66196;BME280;53000;45.182;5.736;2023-08-06T07:04:11;99254.28;;;21.10;45.05
66196;BME280;53000;45.182;5.736;2023-08-06T07:06:37;99253.19;;;20.99;44.14
66196;BME280;53000;45.182;5.736;2023-08-06T07:09:02;99253.88;;;20.95;43.24
66196;BME280;53000;45.182;5.736;2023-08-06T07:11:28;99257.47;;;20.83;42.14
66196;BME280;53000;45.182;5.736;2023-08-06T07:13:57;99255.19;;;20.80;42.47
66196;BME280;53000;45.182;5.736;2023-08-06T07:16:23;99250.31;;;20.82;41.55
66196;BME280;53000;45.182;5.736;2023-08-06T07:18:51;99242.88;;;20.83;41.80
66196;BME280;53000;45.182;5.736;2023-08-06T07:21:16;99240.13;;;20.83;41.59
66196;BME280;53000;45.182;5.736;2023-08-06T07:23:41;99255.91;;;20.88;41.65
66196;BME280;53000;45.182;5.736;2023-08-06T07:26:07;99248.75;;;20.87;41.47
66196;BME280;53000;45.182;5.736;2023-08-06T07:28:32;99253.88;;;20.83;41.23
66196;BME280;53000;45.182;5.736;2023-08-06T07:30:57;99264.13;;;20.76;41.72
66196;BME280;53000;45.182;5.736;2023-08-06T07:33:23;99272.66;;;20.74;42.14
66196;BME280;53000;45.182;5.736;2023-08-06T07:35:48;99274.53;;;20.62;42.53
66196;BME280;53000;45.182;5.736;2023-08-06T07:38:13;99271.78;;;20.62;42.43
66196;BME280;53000;45.182;5.736;2023-08-06T07:40:39;99270.72;;;20.63;42.88
66196;BME280;53000;45.182;5.736;2023-08-06T07:43:04;99277.88;;;20.64;42.51
66196;BME280;53000;45.182;5.736;2023-08-06T07:45:36;99270.72;;;20.63;42.83
66196;BME280;53000;45.182;5.736;2023-08-06T07:48:02;99282.44;;;20.70;42.70
66196;BME280;53000;45.182;5.736;2023-08-06T07:50:27;99292.63;;;20.70;43.10
66196;BME280;53000;45.182;5.736;2023-08-06T07:52:53;99295.72;;;20.73;42.65
66196;BME280;53000;45.182;5.736;2023-08-06T07:55:18;99283.28;;;20.71;42.98
66196;BME280;53000;45.182;5.736;2023-08-06T07:57:43;99282.94;;;20.79;42.85
66196;BME280;53000;45.182;5.736;2023-08-06T08:00:09;99280.69;;;20.88;43.11
66196;BME280;53000;45.182;5.736;2023-08-06T08:02:35;99279.34;;;20.90;43.16
66196;BME280;53000;45.182;5.736;2023-08-06T08:05:00;99276.50;;;20.97;43.45
66196;BME280;53000;45.182;5.736;2023-08-06T08:07:25;99282.59;;;20.99;43.51
66196;BME280;53000;45.182;5.736;2023-08-06T08:09:53;99277.84;;;21.06;43.57
66196;BME280;53000;45.182;5.736;2023-08-06T08:12:19;99266.94;;;21.11;43.55
66196;BME280;53000;45.182;5.736;2023-08-06T08:14:44;99288.84;;;21.18;43.22
66196;BME280;53000;45.182;5.736;2023-08-06T08:17:11;99284.91;;;21.26;43.29
66196;BME280;53000;45.182;5.736;2023-08-06T08:19:37;99283.22;;;21.36;43.05
66196;BME280;53000;45.182;5.736;2023-08-06T08:22:02;99298.44;;;21.39;43.41
66196;BME280;53000;45.182;5.736;2023-08-06T08:24:28;99290.41;;;21.37;43.38
66196;BME280;53000;45.182;5.736;2023-08-06T08:26:56;99302.66;;;21.41;43.72
66196;BME280;53000;45.182;5.736;2023-08-06T08:29:22;99299.88;;;21.41;43.49
66196;BME280;53000;45.182;5.736;2023-08-06T08:31:47;99297.25;;;21.58;43.08
66196;BME280;53000;45.182;5.736;2023-08-06T08:34:15;99301.16;;;21.74;42.69
66196;BME280;53000;45.182;5.736;2023-08-06T08:36:41;99298.31;;;21.81;42.67
66196;BME280;53000;45.182;5.736;2023-08-06T08:39:06;99313.50;;;21.83;42.29
66196;BME280;53000;45.182;5.736;2023-08-06T08:41:33;99316.97;;;21.91;42.23
66196;BME280;53000;45.182;5.736;2023-08-06T08:43:59;99309.06;;;21.94;41.95
66196;BME280;53000;45.182;5.736;2023-08-06T08:46:32;99306.91;;;21.96;41.52
66196;BME280;53000;45.182;5.736;2023-08-06T08:48:59;99304.28;;;21.90;40.84
66196;BME280;53000;45.182;5.736;2023-08-06T08:51:25;99296.84;;;21.90;41.35
66196;BME280;53000;45.182;5.736;2023-08-06T08:53:52;99314.19;;;22.02;41.18
66196;BME280;53000;45.182;5.736;2023-08-06T08:56:20;99306.34;;;22.80;41.13
66196;BME280;53000;45.182;5.736;2023-08-06T08:58:46;99313.25;;;24.51;39.48
66196;BME280;53000;45.182;5.736;2023-08-06T09:01:11;99305.34;;;26.04;35.68
66196;BME280;53000;45.182;5.736;2023-08-06T09:03:37;99311.13;;;26.76;34.73
66196;BME280;53000;45.182;5.736;2023-08-06T09:06:03;99315.03;;;26.75;33.08
66196;BME280;53000;45.182;5.736;2023-08-06T09:08:34;99315.16;;;26.32;34.07
66196;BME280;53000;45.182;5.736;2023-08-06T09:11:02;99316.25;;;25.73;34.83
66196;BME280;53000;45.182;5.736;2023-08-06T09:13:28;99324.59;;;25.36;35.43
66196;BME280;53000;45.182;5.736;2023-08-06T09:15:53;99318.66;;;24.89;36.08
66196;BME280;53000;45.182;5.736;2023-08-06T09:18:25;99321.09;;;24.59;36.73
66196;BME280;53000;45.182;5.736;2023-08-06T09:20:52;99324.31;;;24.28;37.38
66196;BME280;53000;45.182;5.736;2023-08-06T09:23:17;99319.31;;;24.03;37.74
66196;BME280;53000;45.182;5.736;2023-08-06T09:25:45;99326.91;;;23.74;38.55
66196;BME280;53000;45.182;5.736;2023-08-06T09:28:11;99321.59;;;23.51;39.00
66196;BME280;53000;45.182;5.736;2023-08-06T09:30:37;99318.50;;;23.30;39.12
66196;BME280;53000;45.182;5.736;2023-08-06T09:33:08;99325.97;;;23.13;39.52
66196;BME280;53000;45.182;5.736;2023-08-06T09:35:35;99324.44;;;23.05;39.76
66196;BME280;53000;45.182;5.736;2023-08-06T09:38:08;99324.56;;;22.98;39.41
66196;BME280;53000;45.182;5.736;2023-08-06T09:40:34;99319.38;;;22.85;39.64
66196;BME280;53000;45.182;5.736;2023-08-06T09:43:00;99332.00;;;22.81;39.79
66196;BME280;53000;45.182;5.736;2023-08-06T09:45:34;99319.97;;;22.87;39.17
66196;BME280;53000;45.182;5.736;2023-08-06T09:48:00;99317.34;;;23.09;38.89
66196;BME280;53000;45.182;5.736;2023-08-06T09:50:29;99322.78;;;23.38;38.16
66196;BME280;53000;45.182;5.736;2023-08-06T09:52:57;99317.63;;;23.63;38.04
66196;BME280;53000;45.182;5.736;2023-08-06T09:55:24;99319.63;;;23.85;38.03
66196;BME280;53000;45.182;5.736;2023-08-06T09:57:52;99323.41;;;24.23;37.03
66196;BME280;53000;45.182;5.736;2023-08-06T10:00:18;99317.69;;;24.52;36.67
66196;BME280;53000;45.182;5.736;2023-08-06T10:02:43;99320.47;;;24.79;36.79
66196;BME280;53000;45.182;5.736;2023-08-06T10:05:10;99310.19;;;25.06;35.86
66196;BME280;53000;45.182;5.736;2023-08-06T10:07:36;99317.72;;;25.43;35.61
66196;BME280;53000;45.182;5.736;2023-08-06T10:10:05;99311.03;;;25.82;34.28
66196;BME280;53000;45.182;5.736;2023-08-06T10:12:34;99314.22;;;26.06;36.10
66196;BME280;53000;45.182;5.736;2023-08-06T10:15:04;99314.63;;;26.40;33.95
66196;BME280;53000;45.182;5.736;2023-08-06T10:17:32;99309.69;;;26.52;33.98
66196;BME280;53000;45.182;5.736;2023-08-06T10:19:59;99327.97;;;26.53;32.38
66196;BME280;53000;45.182;5.736;2023-08-06T10:22:25;99321.03;;;26.51;31.88
66196;BME280;53000;45.182;5.736;2023-08-06T10:24:53;99322.50;;;26.59;33.25
66196;BME280;53000;45.182;5.736;2023-08-06T10:27:28;99328.34;;;26.72;33.28
66196;BME280;53000;45.182;5.736;2023-08-06T10:29:55;99329.72;;;26.70;32.90
66196;BME280;53000;45.182;5.736;2023-08-06T10:32:20;99333.59;;;26.59;32.82
66196;BME280;53000;45.182;5.736;2023-08-06T10:34:57;99336.00;;;26.45;33.08
66196;BME280;53000;45.182;5.736;2023-08-06T10:37:24;99342.91;;;26.37;33.08
66196;BME280;53000;45.182;5.736;2023-08-06T10:39:52;99335.06;;;26.14;32.79
66196;BME280;53000;45.182;5.736;2023-08-06T10:42:28;99336.00;;;25.82;33.84
66196;BME280;53000;45.182;5.736;2023-08-06T10:45:16;99343.59;;;25.59;33.65
66196;BME280;53000;45.182;5.736;2023-08-06T10:47:42;99355.59;;;25.33;34.15
66196;BME280;53000;45.182;5.736;2023-08-06T10:50:11;99355.97;;;25.14;34.34
66196;BME280;53000;45.182;5.736;2023-08-06T10:52:36;99360.88;;;25.07;35.28
66196;BME280;53000;45.182;5.736;2023-08-06T10:55:02;99356.41;;;25.01;36.18
66196;BME280;53000;45.182;5.736;2023-08-06T10:57:27;99348.03;;;24.96;36.57
66196;BME280;53000;45.182;5.736;2023-08-06T10:59:53;99340.78;;;24.89;36.53
66196;BME280;53000;45.182;5.736;2023-08-06T11:02:18;99345.25;;;24.96;36.29
66196;BME280;53000;45.182;5.736;2023-08-06T11:04:43;99344.78;;;25.04;35.62
66196;BME280;53000;45.182;5.736;2023-08-06T11:07:09;99334.84;;;25.08;35.67
66196;BME280;53000;45.182;5.736;2023-08-06T11:09:35;99337.97;;;25.17;34.08
66196;BME280;53000;45.182;5.736;2023-08-06T11:12:00;99329.75;;;25.22;34.93
66196;BME280;53000;45.182;5.736;2023-08-06T11:14:26;99324.84;;;25.34;33.54
66196;BME280;53000;45.182;5.736;2023-08-06T11:16:51;99320.41;;;25.33;34.18
66196;BME280;53000;45.182;5.736;2023-08-06T11:19:16;99322.84;;;25.24;33.63
66196;BME280;53000;45.182;5.736;2023-08-06T11:21:43;99310.00;;;25.13;33.73
66196;BME280;53000;45.182;5.736;2023-08-06T11:24:10;99322.94;;;25.07;33.21
66196;BME280;53000;45.182;5.736;2023-08-06T11:26:36;99316.88;;;25.10;33.91
66196;BME280;53000;45.182;5.736;2023-08-06T11:29:02;99328.22;;;25.09;33.81
66196;BME280;53000;45.182;5.736;2023-08-06T11:31:28;99320.16;;;25.02;34.15
66196;BME280;53000;45.182;5.736;2023-08-06T11:33:54;99309.53;;;24.94;33.92
66196;BME280;53000;45.182;5.736;2023-08-06T11:36:33;99298.16;;;24.90;33.74
66196;BME280;53000;45.182;5.736;2023-08-06T11:39:00;99298.94;;;24.86;33.82
66196;BME280;53000;45.182;5.736;2023-08-06T11:41:28;99295.84;;;24.82;34.30
66196;BME280;53000;45.182;5.736;2023-08-06T11:43:54;99297.00;;;24.86;34.11
66196;BME280;53000;45.182;5.736;2023-08-06T11:46:19;99298.69;;;24.87;33.75
66196;BME280;53000;45.182;5.736;2023-08-06T11:48:58;99292.06;;;24.94;33.78
66196;BME280;53000;45.182;5.736;2023-08-06T11:51:25;99288.75;;;24.92;32.64
66196;BME280;53000;45.182;5.736;2023-08-06T11:53:59;99293.84;;;25.05;33.47
66196;BME280;53000;45.182;5.736;2023-08-06T11:56:25;99295.00;;;25.09;33.45
66196;BME280;53000;45.182;5.736;2023-08-06T11:58:52;99290.88;;;25.17;32.98
66196;BME280;53000;45.182;5.736;2023-08-06T12:01:18;99286.06;;;25.34;32.36
66196;BME280;53000;45.182;5.736;2023-08-06T12:03:43;99294.44;;;25.44;32.85
66196;BME280;53000;45.182;5.736;2023-08-06T12:06:08;99293.44;;;25.61;32.05
66196;BME280;53000;45.182;5.736;2023-08-06T12:08:34;99303.81;;;25.81;32.00
66196;BME280;53000;45.182;5.736;2023-08-06T12:10:59;99302.78;;;25.92;31.26
66196;BME280;53000;45.182;5.736;2023-08-06T12:13:25;99299.38;;;25.85;31.77
66196;BME280;53000;45.182;5.736;2023-08-06T12:15:50;99307.97;;;25.78;32.47
66196;BME280;53000;45.182;5.736;2023-08-06T12:18:18;99309.59;;;25.74;32.49
66196;BME280;53000;45.182;5.736;2023-08-06T12:20:43;99305.19;;;25.78;32.38
66196;BME280;53000;45.182;5.736;2023-08-06T12:23:09;99307.63;;;25.69;32.24
66196;BME280;53000;45.182;5.736;2023-08-06T12:25:35;99294.78;;;25.53;32.68
66196;BME280;53000;45.182;5.736;2023-08-06T12:28:00;99310.47;;;25.37;32.39
66196;BME280;53000;45.182;5.736;2023-08-06T12:30:26;99314.28;;;25.26;32.21
66196;BME280;53000;45.182;5.736;2023-08-06T12:32:51;99327.94;;;25.10;32.54
66196;BME280;53000;45.182;5.736;2023-08-06T12:35:17;99320.97;;;25.03;33.00
66196;BME280;53000;45.182;5.736;2023-08-06T12:37:42;99311.78;;;24.97;33.35
66196;BME280;53000;45.182;5.736;2023-08-06T12:40:09;99310.06;;;24.91;33.53
66196;BME280;53000;45.182;5.736;2023-08-06T12:42:34;99318.56;;;24.84;33.21
66196;BME280;53000;45.182;5.736;2023-08-06T12:45:00;99314.66;;;24.80;33.30
66196;BME280;53000;45.182;5.736;2023-08-06T12:47:25;99319.03;;;24.76;32.63
66196;BME280;53000;45.182;5.736;2023-08-06T12:49:50;99316.59;;;24.80;32.58
66196;BME280;53000;45.182;5.736;2023-08-06T12:52:16;99306.34;;;24.80;32.86
66196;BME280;53000;45.182;5.736;2023-08-06T12:54:42;99314.78;;;24.96;33.17
66196;BME280;53000;45.182;5.736;2023-08-06T12:57:07;99311.88;;;25.07;33.43
66196;BME280;53000;45.182;5.736;2023-08-06T12:59:33;99316.63;;;25.17;32.79